ADDS METAR Data INFO
IDs: Format: Raw Decoded Include TAF

Data at: 0349 UTC 18 Oct 2017

KFKS 180335Z AUTO 00000KT 10SM CLR 10/09 A3005 RMK AO2 T00980092
KFKS 180315Z AUTO 00000KT 10SM CLR 11/10 A3006 RMK AO2 T01090103
KFKS 180255Z AUTO 00000KT 10SM CLR 10/08 A3006 RMK AO2 T01000083
KFKS 180235Z AUTO 00000KT 10SM CLR 11/09 A3006 RMK AO2 T01060087
KFKS 180216Z AUTO 00000KT 10SM CLR 09/08 A3006 RMK AO2 T00850078
KFKS 180155Z AUTO 00000KT 10SM CLR 10/09 A3006 RMK AO2 T00950089
KFKS 180135Z AUTO 00000KT 10SM CLR 11/09 A3006 RMK AO2 T01090086
KFKS 180116Z AUTO 00000KT 10SM CLR 10/08 A3006 RMK AO2 T01020078
KFKS 180055Z AUTO 00000KT 10SM CLR 10/07 A3006 RMK AO2 T00950069
KFKS 180035Z AUTO 00000KT 10SM CLR 10/08 A3005 RMK AO2 T01030082
KFKS 180016Z AUTO 00000KT 10SM CLR 11/08 A3006 RMK AO2 T01080080
KFKS 172355Z AUTO 00000KT 10SM CLR 11/09 A3005 RMK AO2 T01090090 10169 20105
KFKS 172335Z AUTO 12003KT 10SM CLR 13/09 A3005 RMK AO2 T01280087
KFKS 172315Z AUTO 00000KT 10SM CLR 14/09 A3004 RMK AO2 T01380089
KFKS 172255Z AUTO 11004KT 10SM CLR 15/09 A3004 RMK AO2 T01500094
KFKS 172222Z AUTO 17003KT 10SM CLR 16/10 A3004 RMK AO2 T01550097
KFKS 172215Z AUTO 17006KT 10SM CLR 16/10 A3004 RMK AO2 T01570096
KFKS 172155Z AUTO 20006KT 10SM CLR 16/09 A3004 RMK AO2 T01600092
KFKS 172135Z AUTO 19005KT 10SM CLR 16/10 A3005 RMK AO2 T01570095
KFKS 172058Z AUTO 22007KT 170V230 10SM CLR 16/09 A3005 RMK AO2 T01580090
KFKS 172055Z AUTO 19004KT 10SM CLR 16/09 A3005 RMK AO2 T01580090
KFKS 172035Z AUTO 20006KT 10SM CLR 16/09 A3005 RMK AO2 T01610091
KFKS 172015Z AUTO 21007G14KT 10SM CLR 16/09 A3005 RMK AO2 T01620086
KFKS 171955Z AUTO 21010G15KT 10SM CLR 17/09 A3005 RMK AO2 T01680086
KFKS 171935Z AUTO 19009KT 10SM CLR 17/09 A3005 RMK AO2 T01680091
KFKS 171915Z AUTO 20010G16KT 10SM CLR 16/09 A3005 RMK AO2 T01620091
KFKS 171855Z AUTO 21011G16KT 10SM CLR 16/10 A3005 RMK AO2 T01610095
KFKS 171835Z AUTO 19009G14KT 10SM CLR 17/09 A3005 RMK AO2 T01690092
KFKS 171815Z AUTO 22008KT 10SM CLR 16/09 A3005 RMK AO2 T01640086
KFKS 171755Z AUTO 20010G15KT 170V240 10SM CLR 17/09 A3005 RMK AO2 T01650089 10168 20146
KFKS 171735Z AUTO 21008KT 190V290 10SM CLR 17/09 A3006 RMK AO2 T01660093
KFKS 171713Z AUTO 24009G15KT 200V280 10SM CLR 17/09 A3006 RMK AO2 T01660089
KFKS 171655Z AUTO 23009KT 10SM CLR 16/09 A3006 RMK AO2 T01640087
KFKS 171635Z AUTO 24007G14KT 10SM CLR 16/09 A3006 RMK AO2 T01620085
KFKS 171616Z AUTO 22007KT 10SM CLR 16/09 A3005 RMK AO2 T01640088
KFKS 171540Z AUTO 23008KT 10SM CLR 16/09 A3005 RMK AO2 T01600085
KFKS 171530Z AUTO 24007KT 10SM CLR 16/08 A3005 RMK AO2 T01610084
KFKS 171515Z AUTO 25007KT 10SM CLR 16/08 A3005 RMK AO2 T01600081
KFKS 171455Z AUTO 26009KT 10SM CLR 16/08 A3005 RMK AO2 T01610081
KFKS 171435Z AUTO 25012G16KT 10SM CLR 16/08 A3004 RMK AO2 T01600082
KFKS 171415Z AUTO 26009G15KT 10SM CLR 16/08 A3005 RMK AO2 T01560082
KFKS 171355Z AUTO 25008G14KT 10SM CLR 15/08 A3004 RMK AO2 T01530080
KFKS 171335Z AUTO 25010G15KT 10SM CLR 16/08 A3003 RMK AO2 T01550078
KFKS 171310Z AUTO 25011G14KT 10SM CLR 15/08 A3003 RMK AO2 T01530078
KFKS 171256Z AUTO 24006KT 10SM CLR 15/08 A3003 RMK AO2 T01500080
KFKS 171235Z AUTO 24005KT 10SM CLR 15/09 A3002 RMK AO2 T01470085
KFKS 171216Z AUTO 22009KT 200V260 10SM CLR 15/08 A3001 RMK AO2 T01470082
KFKS 171155Z AUTO 21008KT 200V260 10SM CLR 15/08 A3001 RMK AO2 T01470082 10155 20121
KFKS 171135Z AUTO 21007G14KT 110V240 10SM CLR 15/07 A3001 RMK AO2 T01500074
KFKS 171116Z AUTO 23009G14KT 10SM CLR 15/07 A3002 RMK AO2 T01530073
KFKS 171055Z AUTO 18004KT 10SM CLR 14/10 A3001 RMK AO2 T01440095
KFKS 171035Z AUTO 20006KT 170V230 10SM CLR 14/09 A3002 RMK AO2 T01410087
KFKS 171016Z AUTO 15005KT 10SM CLR 13/08 A3001 RMK AO2 T01270079
KFKS 170955Z AUTO 14005KT 10SM CLR 12/08 A3001 RMK AO2 T01230077
KFKS 170935Z AUTO 13005KT 10SM CLR 13/08 A3002 RMK AO2 T01250076
KFKS 170916Z AUTO 18008KT 10SM CLR 13/08 A3002 RMK AO2 T01300080
KFKS 170855Z AUTO 17007KT 10SM CLR 13/08 A3003 RMK AO2 T01300078
KFKS 170835Z AUTO 15005KT 10SM CLR 13/07 A3004 RMK AO2 T01250074
KFKS 170815Z AUTO 15007KT 150V210 10SM CLR 14/08 A3004 RMK AO2 T01370075
KFKS 170755Z AUTO 20007G18KT 10SM CLR 15/07 A3005 RMK AO2 T01530072
KFKS 170735Z AUTO 21010G15KT 170V240 10SM SCT110 15/07 A3006 RMK AO2 T01520070
KFKS 170716Z AUTO 21011G17KT 170V240 10SM SCT110 15/07 A3007 RMK AO2 T01510068
KFKS 170655Z AUTO 21007G15KT 10SM CLR 15/06 A3008 RMK AO2 T01520064
KFKS 170635Z AUTO 22008G17KT 10SM CLR 15/06 A3008 RMK AO2 T01500064
KFKS 170616Z AUTO 22009G16KT 180V240 10SM CLR 15/06 A3009 RMK AO2 T01500064
KFKS 170555Z AUTO 22008KT 10SM CLR 15/06 A3009 RMK AO2 T01480063 10149 20093 401490053
KFKS 170535Z AUTO 23007G17KT 180V260 10SM CLR 15/06 A3008 RMK AO2 T01470062
KFKS 170516Z AUTO 22008G16KT 180V240 10SM CLR 15/06 A3009 RMK AO2 T01470060
KFKS 170455Z AUTO 22006G14KT 10SM CLR 15/06 A3009 RMK AO2 T01460056
KFKS 170435Z AUTO 22007G15KT 10SM CLR 14/06 A3010 RMK AO2 T01440056
KFKS 170416Z AUTO 22007G14KT 10SM CLR 13/05 A3010 RMK AO2 T01310053
KFKS 170355Z AUTO 00000KT 10SM CLR 10/06 A3010 RMK AO2 T00990063
KFKS 170335Z AUTO 14004KT 10SM CLR 10/06 A3011 RMK AO2 T00970061
KFKS 170316Z AUTO 14003KT 10SM CLR 10/06 A3012 RMK AO2 T00950060
KFKS 170255Z AUTO 14004KT 10SM CLR 10/06 A3012 RMK AO2 T00950055
KFKS 170235Z AUTO 14004KT 10SM CLR 10/05 A3012 RMK AO2 T00950053
KFKS 170215Z AUTO 14004KT 10SM CLR 10/05 A3013 RMK AO2 T00970051
KFKS 170155Z AUTO 14004KT 10SM CLR 10/05 A3013 RMK AO2 T00970050
KFKS 170135Z AUTO 15005KT 10SM CLR 10/05 A3013 RMK AO2 T01000050
KFKS 170116Z AUTO 15005KT 10SM SCT042 SCT047 10/05 A3013 RMK AO2 T01020050
KFKS 170055Z AUTO 16006KT 10SM SCT040 10/05 A3014 RMK AO2 T01040050
KFKS 170035Z AUTO 15005KT 10SM SCT040 11/05 A3014 RMK AO2 T01050050
KFKS 170015Z AUTO 15007KT 10SM SCT042 11/05 A3014 RMK AO2 T01100051
KFKS 162355Z AUTO 20006KT 10SM SCT043 13/05 A3015 RMK AO2 T01250051 10134 20122
KFKS 162335Z AUTO 20008KT 10SM SCT043 13/05 A3015 RMK AO2 T01250050
KFKS 162316Z AUTO 21005KT 10SM CLR 12/05 A3016 RMK AO2 T01220048
KFKS 162255Z AUTO 21005KT 10SM CLR 12/05 A3017 RMK AO2 T01240046
KFKS 162235Z AUTO 22005KT 10SM CLR 13/04 A3017 RMK AO2 T01270043
KFKS 162215Z AUTO 23007KT 10SM CLR 13/04 A3017 RMK AO2 T01270042
KFKS 162156Z AUTO 19005KT 10SM CLR 13/05 A3017 RMK AO2 T01270045
KFKS 162135Z AUTO 22007KT 10SM CLR 13/05 A3018 RMK AO2 T01260045
KFKS 162115Z AUTO 23008KT 10SM SCT032 13/05 A3018 RMK AO2 T01270048
KFKS 162056Z AUTO 21008KT 10SM SCT032 13/05 A3019 RMK AO2 T01310049
KFKS 162035Z AUTO 22007KT 10SM SCT032 13/05 A3019 RMK AO2 T01280047
KFKS 162015Z AUTO 26010G14KT 200V270 10SM SCT032 13/04 A3019 RMK AO2 T01300043
KFKS 161955Z AUTO 23008KT 190V250 10SM SCT032 13/05 A3020 RMK AO2 T01300050
KFKS 161933Z AUTO 25009G15KT 10SM SCT032 13/05 A3020 RMK AO2 T01260046
KFKS 161915Z AUTO 26007G14KT 10SM SCT033 13/04 A3020 RMK AO2 T01260042
KFKS 161840Z AUTO 24006KT 10SM CLR 13/04 A3021 RMK AO2 T01310043
KFKS 161835Z AUTO 25009KT 200V260 10SM CLR 13/04 A3021 RMK AO2 T01310044
KFKS 161815Z AUTO 25009G15KT 10SM SCT036 13/04 A3021 RMK AO2 T01300041
KFKS 161755Z AUTO 23007KT 200V260 10SM BKN036 13/04 A3022 RMK AO2 T01340040 10137 20057
KFKS 161735Z AUTO 26009KT 10SM SCT040 13/04 A3023 RMK AO2 T01280036
KFKS 161714Z AUTO 24009KT 10SM SCT040 14/03 A3023 RMK AO2 T01350033
KFKS 161655Z AUTO 26010G14KT 10SM SCT038 SCT044 SCT050 13/03 A3023 RMK AO2 T01290033
KFKS 161635Z AUTO 24010KT 10SM SCT032 SCT039 BKN047 13/04 A3024 RMK AO2 T01310043
KFKS 161615Z AUTO 18008KT 10SM BKN060 12/07 A3024 RMK AO2 T01200068
KFKS 161555Z AUTO 20010G14KT 170V230 10SM OVC060 12/06 A3024 RMK AO2 T01160062